Relevés horaires Matro (Suisse)


Relevés horaires à Matro - Vendredi 17 Oct. 2014
Heure UTC1 Température [°C] Vent [km/h] Hum. [%] Pres.4 [hPa] Visi. [Km] Nébu. [octa] Préc.5 [mm] Cond.
2m. Res. Ros. Dir.2 Vit. Moy. Raf.3
23:00 9.1 7.4 1.8 SSE 11.1 14.8 18.5 60 850(0.9/3h) -- -- -- --
22:00 9.2 7 0.6 SSE 14.8 14.8 16.7 55 850(1.0/3h) -- -- -- --
21:00 9.6 8.3 -0.3 SSE 9.3 11.1 13.0 50 850(1.1/3h) -- -- -- --
20:00 9.9 9.9 -3.8 S 1.9 3.7 5.6 38 850(1.5/3h) -- -- -- --
19:00 9.8 8.9 -4.8 NNO 7.4 11.1 13.0 35 850(1.5/3h) -- -- -- --
18:00 9.3 7.6 -1.2 NO 11.1 18.5 24.1 48 850(1.7/3h) -- -- -- --
17:00 9.3 6.8 -1.4 NNO 16.7 18.5 22.2 47 850(1.1/3h) -- -- -- --
16:00 9.7 7.3 -- NNO 16.7 16.7 20.4 -- 850(1.0/3h) -- -- -- --
15:00 10.3 8.8 -0.6 NO 11.1 18.5 24.1 47 850(0.4/3h) -- -- -- --
14:00 9.5 7.8 0.3 NO 11.1 13.0 22.2 53 850(0.1/3h) -- -- -- --
13:00 9.4 7.4 1.0 NNO 13.0 18.5 24.1 56 850(0.3/3h) -- -- -- --
12:00 9.4 6.8 2.2 NNO 18.5 22.2 29.6 61 850(0.9/3h) -- -- -- --
11:00 8.9 6.6 2.6 NO 14.8 14.8 27.8 65 850(1.5/3h) -- -- -- --
10:00 8.7 7.2 3.5 NO 9.3 20.4 29.6 70 850(1.8/3h) -- -- -- --
09:00 8.5 6.6 3.3 NO 11.1 20.4 25.9 70 850(2.2/3h) -- -- -- --
08:00 6.8 5 4.6 NNO 9.3 11.1 14.8 86 850(2.3/3h) -- -- -- --
07:00 5.9 3.9 4.9 ESE 9.3 20.4 25.9 93 850(1.3/3h) -- -- -- --
06:00 5.4 1.3 5.4 SSE 22.2 38.9 46.3 100 850(0.7/3h) -- -- -- --
05:00 5.5 0.3 5.5 SE 35.2 35.2 42.6 100 850(-0.1/3h) -- -- -- --
04:00 5.4 0.8 5.4 SSE 27.8 33.3 37.0 100 850(0.0/3h) -- -- -- --
03:00 5.3 0.3 5.3 SSE 31.5 38.9 46.3 100 850(-1.0/3h) -- -- -- --
02:00 5.2 -0.1 5.2 SSE 35.2 38.9 46.3 100 850(-0.7/3h) -- -- -- --
01:00 5.0 -0.5 4.5 SE 37.0 38.9 42.6 97 850(-1.1/3h) -- -- -- --
00:00 5.1 -0.5 4.9 SE 38.9 40.7 46.3 99 850(-0.5/3h) -- -- -- --

1 Coordinated Universal Time. Actuellement il est 22:00 locale et 20:00 UTC.

2 Le vent souffle depuis la direction indiquée vers la direction oposée.

3 Les rafales max. sont disponible 40 min après l'heure du relevé.

4 Pour les stations d'altitude (plus de 600m) le géopotentiel du niveau le plus proche de la pression obligatoire est indiqué.

5 Les stations disposant d'un diffuseur peuvent indiquer "trace". Cela signifie que des précipitations ont touchés le sol mais que la quantité est inférieure à 0.1 mm.

Copyright

Les données affichées sur cette page sont la propriété exclusive de Météo Suisse.

Récapitulatif de la journée
Température [°C] Vent [km/h] Ensoleillement4 [h] Precipitations totale5 [mm] Pression [Hpa]
Min1 Max.2 Moy.3 Max. Min Max.
4.8 10.3 22.2 46.3 8 h 6 min 0 850.0 850.0

1 Température minimale relevée entre 18:00 UTC la veille et 18:00 UTC le jour donné.

2 Température maximale relevée entre 06:00 UTC le jour donné et 06:00 UTC le lendemain.

3 Vent moyen de la journée basé sur les relevés horaires.

4 Ensoleillement en heures relevé entre 06:00 UTC la veille et 06:00 UTC le jour donné.

5 Précipitations totales tombées entre 06:00 UTC la jour donné et 06:00 UTC le lendemain.

Graphiques horaires